Time;durP1;ratioP1;P1;durP2;ratioP2;P2;SDS_P1;SDS_P2;PMS_P1;PMS_P2;Temp;Humidity;BMP_temperature;BMP_pressure;BME280_temperature;BME280_humidity;BME280_pressure;Samples;Min_cycle;Max_cycle;Signal;HPM_P1;HPM_P2
2022/12/12 02:28:42;;;;;;;6.05;5.25;;;;;;;1.39;84.80;97565.67;1823083;78;22666;-39
2022/12/12 02:31:17;;;;;;;5.42;4.58;;;;;;;1.48;83.92;97590.88;1794098;79;26991;-39
2022/12/12 02:34:01;;;;;;;7.15;5.70;;;;;;;1.42;83.52;97590.34;1791880;79;23086;-39
2022/12/12 02:36:42;;;;;;;5.65;4.92;;;;;;;1.40;83.08;97602.50;1797768;79;20955;-38
2022/12/12 02:39:22;;;;;;;5.42;4.72;;;;;;;1.39;82.05;97606.28;1797811;79;20928;-39
2022/12/12 02:42:01;;;;;;;6.05;5.37;;;;;;;1.40;81.58;97612.62;1786866;79;21583;-38
2022/12/12 02:44:36;;;;;;;8.48;5.72;;;;;;;1.38;81.08;97608.72;1798180;79;20987;-38
2022/12/12 02:47:08;;;;;;;7.08;5.53;;;;;;;1.34;81.08;97617.20;1797733;79;21524;-39
2022/12/12 02:49:50;;;;;;;7.42;5.47;;;;;;;1.30;80.86;97625.91;1797822;79;20960;-39
2022/12/12 02:52:17;;;;;;;6.80;5.25;;;;;;;1.31;80.38;97601.29;1797844;79;20916;-39
2022/12/12 02:54:44;;;;;;;7.03;5.53;;;;;;;1.34;79.68;97616.65;1767187;79;21031;-39
2022/12/12 02:57:22;;;;;;;6.87;5.58;;;;;;;1.34;79.31;97621.98;1797767;79;21003;-39
2022/12/12 02:59:59;;;;;;;8.23;5.57;;;;;;;1.28;79.05;97620.11;1798195;79;21151;-39
2022/12/12 03:02:49;;;;;;;6.50;5.30;;;;;;;1.17;78.82;97616.37;1798048;79;21236;-40
2022/12/12 03:09:10;;;;;;;6.47;5.05;;;;;;;1.15;79.70;97609.84;1778396;80;21067;-39
2022/12/12 03:11:46;;;;;;;8.20;6.10;;;;;;;1.11;79.93;97621.75;1797743;79;21056;-39
2022/12/12 03:14:21;;;;;;;7.75;5.67;;;;;;;1.03;80.18;97630.66;1797076;79;21128;-40
2022/12/12 03:17:02;;;;;;;8.90;5.62;;;;;;;1.02;80.26;97639.00;1797510;79;20979;-39
2022/12/12 03:19:33;;;;;;;7.85;5.70;;;;;;;1.01;80.25;97647.58;1730833;82;20938;-39
2022/12/12 03:22:14;;;;;;;6.70;5.65;;;;;;;0.99;80.58;97632.45;1740971;82;21494;-39
2022/12/12 03:25:06;;;;;;;8.20;6.15;;;;;;;0.95;80.85;97643.59;1740978;82;21036;-39
2022/12/12 03:27:54;;;;;;;8.15;6.05;;;;;;;0.92;81.20;97642.91;1750358;81;21138;-39
2022/12/12 03:30:21;;;;;;;7.42;5.65;;;;;;;0.90;81.41;97649.16;1757965;81;20929;-39
2022/12/12 03:32:58;;;;;;;7.08;5.95;;;;;;;0.96;81.64;97650.48;1757996;81;20965;-39
2022/12/12 03:35:39;;;;;;;8.75;6.53;;;;;;;1.01;81.58;97651.59;1758351;81;21496;-39
2022/12/12 03:38:19;;;;;;;8.45;6.00;;;;;;;1.01;81.87;97648.92;1756967;81;21041;-39
2022/12/12 03:40:50;;;;;;;8.00;6.60;;;;;;;1.00;81.96;97639.36;1757460;81;21128;-39
2022/12/12 03:43:22;;;;;;;7.60;6.15;;;;;;;1.01;81.90;97652.14;1757553;81;21487;-39
2022/12/12 03:46:18;;;;;;;8.28;6.53;;;;;;;1.00;80.92;97653.25;1756700;81;20992;-39
2022/12/12 03:48:56;;;;;;;9.33;7.40;;;;;;;0.99;79.66;97651.13;1757359;81;21033;-39
2022/12/12 03:51:29;;;;;;;10.32;7.53;;;;;;;0.87;79.41;97652.52;1756934;81;21036;-39
2022/12/12 03:54:07;;;;;;;9.00;6.70;;;;;;;0.77;79.59;97652.42;1757221;81;21220;-39
2022/12/12 03:56:39;;;;;;;10.45;7.42;;;;;;;0.71;79.81;97648.98;1757150;81;21569;-39
2022/12/12 03:59:26;;;;;;;12.23;7.90;;;;;;;0.69;79.77;97652.52;1757278;81;21008;-39
2022/12/12 04:02:25;;;;;;;10.70;7.72;;;;;;;0.64;80.12;97657.53;1757247;81;21526;-39
2022/12/12 04:05:15;;;;;;;10.10;7.65;;;;;;;0.59;80.41;97666.31;1757585;81;21033;-38
2022/12/12 04:08:02;;;;;;;9.33;6.87;;;;;;;0.59;80.84;97666.31;1757330;81;22046;-39
2022/12/12 04:13:44;;;;;;;9.45;7.08;;;;;;;0.54;80.15;97662.54;1757342;81;21463;-39
2022/12/12 04:16:18;;;;;;;9.35;6.97;;;;;;;0.46;80.25;97670.11;1757042;81;21049;-39
2022/12/12 04:18:57;;;;;;;9.35;6.60;;;;;;;0.46;80.13;97662.11;1750855;81;21029;-39
2022/12/12 04:24:49;;;;;;;8.38;6.17;;;;;;;0.36;80.51;97663.34;1757344;81;20953;-39
2022/12/12 04:27:30;;;;;;;8.60;6.58;;;;;;;0.30;81.05;97660.11;1751942;81;21069;-40
2022/12/12 04:30:06;;;;;;;9.45;7.47;;;;;;;0.36;81.16;97664.12;1738399;82;21030;-39
2022/12/12 04:32:45;;;;;;;10.65;7.97;;;;;;;0.36;81.27;97662.00;1738678;82;20997;-39
2022/12/12 04:35:32;;;;;;;10.32;7.62;;;;;;;0.33;81.08;97670.68;1738549;82;23189;-39
2022/12/12 04:38:12;;;;;;;10.40;7.67;;;;;;;0.32;80.98;97669.90;1738511;82;21003;-40
2022/12/12 04:40:42;;;;;;;11.15;8.68;;;;;;;0.35;81.09;97678.55;1738649;82;20989;-39
2022/12/12 04:43:18;;;;;;;9.33;7.47;;;;;;;0.29;80.31;97675.13;1738775;82;20972;-40
2022/12/12 04:45:49;;;;;;;9.95;7.80;;;;;;;0.19;79.86;97672.90;1738506;82;21013;-40
2022/12/12 04:48:20;;;;;;;10.53;7.28;;;;;;;0.17;80.12;97685.21;1738436;81;21468;-39
2022/12/12 04:50:48;;;;;;;10.53;7.92;;;;;;;0.14;80.16;97691.77;1738513;82;25259;-40
2022/12/12 04:53:17;;;;;;;12.03;8.30;;;;;;;0.13;80.19;97702.19;1738747;81;20922;-39
2022/12/12 04:55:47;;;;;;;11.55;8.45;;;;;;;0.09;80.53;97701.30;1738423;81;21057;-39
2022/12/12 04:58:14;;;;;;;11.28;8.53;;;;;;;0.06;80.80;97708.05;1738603;82;21033;-39
2022/12/12 05:00:57;;;;;;;11.93;8.65;;;;;;;0.05;81.24;97722.48;1738416;82;21239;-39
2022/12/12 05:03:48;;;;;;;12.28;8.25;;;;;;;0.02;81.48;97732.47;1738396;82;21069;-39
2022/12/12 05:06:21;;;;;;;11.08;8.45;;;;;;;0.00;81.92;97728.80;1738702;82;21509;-39
2022/12/12 05:08:51;;;;;;;12.20;9.03;;;;;;;0.03;82.09;97720.72;1738421;82;21001;-39
2022/12/12 05:11:17;;;;;;;14.05;9.48;;;;;;;0.01;82.27;97712.27;1726117;82;21041;-39
2022/12/12 05:13:44;;;;;;;13.10;8.78;;;;;;;0.00;82.34;97704.83;1732753;82;21197;-39
2022/12/12 05:16:28;;;;;;;12.23;9.28;;;;;;;0.02;82.18;97699.17;1738166;82;20981;-39
2022/12/12 05:18:54;;;;;;;12.78;9.23;;;;;;;0.02;81.56;97705.83;1733278;82;20999;-39
2022/12/12 05:21:21;;;;;;;12.78;9.05;;;;;;;-0.10;81.40;97705.24;1738227;82;20978;-40
2022/12/12 05:23:48;;;;;;;14.35;9.83;;;;;;;-0.16;81.49;97703.14;1738257;82;21001;-39
2022/12/12 05:26:24;;;;;;;12.93;8.80;;;;;;;-0.18;81.62;97710.66;1738293;81;21077;-39
2022/12/12 05:28:50;;;;;;;12.75;8.50;;;;;;;-0.20;81.91;97716.34;1746854;82;21072;-39
2022/12/12 05:31:17;;;;;;;10.75;7.60;;;;;;;-0.17;81.81;97730.32;1748939;82;21065;-39
2022/12/12 05:33:44;;;;;;;9.83;7.83;;;;;;;-0.13;81.10;97719.78;1797234;79;21498;-39
2022/12/12 05:36:13;;;;;;;10.40;7.85;;;;;;;-0.14;80.31;97714.22;1797326;79;20927;-39
2022/12/12 05:38:40;;;;;;;11.60;8.60;;;;;;;-0.18;80.15;97715.99;1797353;79;21226;-39
2022/12/12 05:41:07;;;;;;;11.53;8.03;;;;;;;-0.22;80.38;97723.09;1797274;79;21011;-39
2022/12/12 05:43:34;;;;;;;11.95;8.78;;;;;;;-0.25;80.48;97718.42;1797401;79;20928;-40
2022/12/12 05:46:01;;;;;;;12.47;8.45;;;;;;;-0.30;80.78;97729.28;1797146;79;20987;-39
2022/12/12 05:48:28;;;;;;;13.13;8.60;;;;;;;-0.32;80.82;97728.82;1797351;79;21011;-39
2022/12/12 05:50:55;;;;;;;12.68;8.88;;;;;;;-0.33;81.11;97736.02;1797197;79;23130;-39
2022/12/12 05:53:22;;;;;;;11.60;8.48;;;;;;;-0.32;80.86;97740.25;1797187;79;21023;-39
2022/12/12 05:55:50;;;;;;;13.38;9.20;;;;;;;-0.30;81.03;97746.59;1797272;79;21010;-39
2022/12/12 05:58:18;;;;;;;12.43;9.00;;;;;;;-0.27;80.49;97752.58;1797377;79;21054;-40
2022/12/12 06:00:49;;;;;;;12.93;8.48;;;;;;;-0.28;80.19;97754.46;1797280;79;21323;-39
2022/12/12 06:03:16;;;;;;;12.53;8.50;;;;;;;-0.29;80.18;97760.13;1797552;79;21071;-40
2022/12/12 06:05:43;;;;;;;11.18;8.08;;;;;;;-0.29;80.24;97764.12;1797144;79;21055;-39
2022/12/12 06:08:09;;;;;;;13.13;9.38;;;;;;;-0.31;80.15;97768.44;1797327;79;20935;-39
2022/12/12 06:10:36;;;;;;;13.08;8.95;;;;;;;-0.31;79.93;97771.10;1797163;79;21344;-39
2022/12/12 06:13:04;;;;;;;12.35;8.95;;;;;;;-0.30;80.30;97770.55;1797108;79;21082;-39
2022/12/12 06:15:31;;;;;;;12.37;8.83;;;;;;;-0.30;80.05;97783.87;1797461;79;21128;-39
2022/12/12 06:17:58;;;;;;;14.68;9.58;;;;;;;-0.32;80.08;97790.05;1797465;79;21017;-39
2022/12/12 06:20:26;;;;;;;13.62;9.73;;;;;;;-0.33;80.00;97780.50;1797401;79;21535;-39
2022/12/12 10:47:57;;;;;;;17.12;12.00;;;;;;;0.13;75.78;98018.73;1755966;80;22034;-39
2022/12/12 10:50:47;;;;;;;17.17;13.00;;;;;;;0.21;74.79;98029.88;1762696;81;21004;-38
2022/12/12 10:53:13;;;;;;;17.32;11.88;;;;;;;0.13;74.73;98031.27;1758943;81;21765;-39
2022/12/12 10:55:46;;;;;;;19.00;11.65;;;;;;;0.05;74.76;98028.87;1728412;83;20958;-38
2022/12/12 10:58:15;;;;;;;43.83;23.50;;;;;;;0.04;74.69;98033.98;1758779;81;20971;-38
2022/12/12 11:00:44;;;;;;;16.80;11.33;;;;;;;-0.01;73.98;98031.51;1728799;83;21001;-38
2022/12/12 11:03:38;;;;;;;15.23;10.45;;;;;;;-0.02;74.25;98035.27;1758870;81;20915;-39
2022/12/12 11:06:16;;;;;;;13.72;9.75;;;;;;;-0.06;73.75;98043.68;1728440;83;21257;-38
2022/12/12 11:08:55;;;;;;;16.45;11.10;;;;;;;-0.08;73.64;98041.33;1776516;78;20956;-38
2022/12/12 11:11:25;;;;;;;21.95;14.38;;;;;;;-0.11;74.26;98047.86;1822455;78;21007;-38
2022/12/12 11:13:58;;;;;;;18.57;12.03;;;;;;;-0.08;74.38;98045.88;1822395;78;21549;-39
2022/12/12 11:16:39;;;;;;;20.45;12.28;;;;;;;-0.07;74.45;98054.89;1822468;78;21040;-39
2022/12/12 11:19:25;;;;;;;19.00;11.43;;;;;;;-0.03;73.96;98055.80;1822558;78;21223;-39
2022/12/12 11:21:53;;;;;;;18.10;11.55;;;;;;;0.00;74.22;98062.38;1822524;78;21005;-38
2022/12/12 11:24:23;;;;;;;21.37;12.68;;;;;;;0.07;74.30;98070.64;1822602;78;21013;-39
2022/12/12 11:26:59;;;;;;;19.77;11.88;;;;;;;0.15;74.16;98076.46;1822638;78;20960;-39
2022/12/12 11:29:46;;;;;;;17.35;11.63;;;;;;;0.16;73.99;98078.03;1822570;78;21505;-39
2022/12/12 11:32:28;;;;;;;15.20;10.05;;;;;;;0.14;73.54;98073.59;1822564;78;21287;-39
2022/12/12 11:34:57;;;;;;;16.40;10.48;;;;;;;0.12;73.11;98074.45;1822159;78;21017;-39
2022/12/12 11:37:28;;;;;;;15.35;10.25;;;;;;;0.09;72.94;98077.77;1822381;78;21498;-38
2022/12/12 11:39:55;;;;;;;15.40;10.32;;;;;;;0.03;72.99;98071.05;1820808;78;20925;-39
2022/12/12 11:42:28;;;;;;;15.60;10.50;;;;;;;0.02;73.18;98080.14;1822373;78;21020;-39
2022/12/12 11:45:15;;;;;;;15.80;11.10;;;;;;;-0.02;72.83;98088.00;1822220;78;23155;-39
2022/12/12 11:47:44;;;;;;;15.90;10.15;;;;;;;-0.01;73.01;98084.25;1815935;78;20999;-39
2022/12/12 11:50:24;;;;;;;18.30;11.48;;;;;;;-0.01;73.10;98089.58;1821907;78;20933;-39
2022/12/12 11:52:57;;;;;;;16.62;10.72;;;;;;;-0.06;73.54;98094.30;1821842;78;20933;-39
2022/12/12 11:55:58;;;;;;;15.45;10.98;;;;;;;-0.08;73.50;98095.16;1821822;78;21017;-38
2022/12/12 11:58:29;;;;;;;14.33;9.90;;;;;;;-0.11;73.75;98091.27;1821817;78;21130;-39
2022/12/12 12:01:16;;;;;;;15.95;10.45;;;;;;;-0.13;73.49;98098.00;1821819;78;21565;-39
2022/12/12 12:04:11;;;;;;;17.37;11.18;;;;;;;-0.11;73.67;98109.13;1818424;78;21517;-38
2022/12/12 12:06:56;;;;;;;17.10;11.03;;;;;;;-0.11;73.92;98099.80;1821483;78;21012;-39
2022/12/12 12:09:40;;;;;;;15.93;10.35;;;;;;;-0.07;74.01;98094.06;1821815;78;20925;-39
2022/12/12 12:12:27;;;;;;;17.55;11.33;;;;;;;-0.03;74.03;98088.31;1821882;78;23169;-38
2022/12/12 12:15:20;;;;;;;17.15;10.93;;;;;;;-0.02;74.16;98090.67;1792215;78;21028;-39
2022/12/12 12:18:10;;;;;;;15.40;10.68;;;;;;;0.05;74.41;98096.05;1821759;78;20956;-38
2022/12/12 12:20:59;;;;;;;17.37;11.18;;;;;;;0.12;74.36;98094.44;1821803;78;20956;-38
2022/12/12 12:23:43;;;;;;;14.87;10.58;;;;;;;0.18;73.50;98097.16;1822003;78;21580;-38
2022/12/12 12:26:24;;;;;;;15.30;10.70;;;;;;;0.22;73.20;98096.73;1821656;78;21210;-39
2022/12/12 12:29:08;;;;;;;16.93;11.25;;;;;;;0.17;73.04;98090.26;1821757;78;20976;-38
2022/12/12 12:31:56;;;;;;;15.20;10.82;;;;;;;0.17;73.10;98090.26;1817027;78;21004;-39
2022/12/12 12:34:40;;;;;;;14.53;10.30;;;;;;;0.14;73.03;98094.91;1821957;78;21032;-39
2022/12/12 12:37:36;;;;;;;17.62;11.30;;;;;;;0.14;73.03;98097.58;1821494;78;20973;-39
2022/12/12 12:40:14;;;;;;;15.18;10.28;;;;;;;0.17;73.32;98097.47;1815692;78;21148;-39
2022/12/12 12:43:13;;;;;;;17.15;10.68;;;;;;;0.15;73.69;98096.45;1821495;78;21469;-38
2022/12/12 12:45:56;;;;;;;19.05;10.05;;;;;;;0.18;73.73;98095.04;1821458;78;21513;-38
2022/12/12 12:48:39;;;;;;;16.87;11.28;;;;;;;0.19;73.61;98094.73;1812062;78;20964;-39
2022/12/12 12:51:24;;;;;;;17.85;12.00;;;;;;;0.23;73.56;98100.97;1811292;79;21017;-39
2022/12/12 12:54:02;;;;;;;19.37;12.63;;;;;;;0.30;73.45;98104.44;1811428;79;21136;-39
2022/12/12 12:56:54;;;;;;;16.97;11.40;;;;;;;0.31;73.28;98100.68;1803695;79;20993;-39
2022/12/12 12:59:25;;;;;;;18.17;11.88;;;;;;;0.35;73.47;98109.04;1811285;79;21068;-38
2022/12/12 13:01:52;;;;;;;16.20;11.00;;;;;;;0.38;73.49;98104.41;1811042;79;21016;-38
2022/12/12 13:04:35;;;;;;;19.10;11.95;;;;;;;0.41;73.14;98101.09;1811222;79;21016;-39
2022/12/12 13:07:07;;;;;;;18.20;12.10;;;;;;;0.38;73.07;98105.75;1810472;79;21895;-38
2022/12/12 13:10:00;;;;;;;17.20;10.88;;;;;;;0.38;73.16;98104.41;1811055;79;20957;-39
2022/12/12 13:12:53;;;;;;;18.02;11.57;;;;;;;0.36;73.00;98109.27;1811343;79;21029;-39
2022/12/12 13:15:27;;;;;;;18.23;11.83;;;;;;;0.36;72.87;98115.94;1811324;79;20937;-41
2022/12/12 13:18:03;;;;;;;18.35;12.07;;;;;;;0.35;73.12;98124.25;1811242;79;21013;-41
2022/12/12 13:20:46;;;;;;;17.20;11.68;;;;;;;0.36;73.21;98134.60;1811575;79;21081;-39
2022/12/12 13:23:38;;;;;;;20.10;11.75;;;;;;;0.38;73.16;98133.73;1811390;79;21033;-38
2022/12/12 13:26:16;;;;;;;17.50;11.83;;;;;;;0.39;73.37;98133.16;1811288;79;20965;-39
2022/12/12 13:28:48;;;;;;;16.67;11.03;;;;;;;0.41;73.37;98122.42;1811078;79;21514;-39
2022/12/12 13:31:43;;;;;;;18.85;11.75;;;;;;;0.42;73.25;98123.98;1811632;79;20986;-39
2022/12/12 13:34:17;;;;;;;18.57;12.13;;;;;;;0.43;73.03;98127.44;1810854;79;21246;-38
2022/12/12 13:36:46;;;;;;;17.77;12.43;;;;;;;0.42;72.87;98129.32;1811401;79;20957;-38
2022/12/12 13:39:29;;;;;;;19.48;12.58;;;;;;;0.40;72.85;98131.52;1811832;79;20969;-39
2022/12/12 13:42:03;;;;;;;18.35;12.40;;;;;;;0.41;72.70;98137.62;1811575;79;21475;-41
2022/12/12 13:44:47;;;;;;;19.15;12.07;;;;;;;0.40;72.31;98136.84;1811521;79;21036;-41
2022/12/12 13:47:28;;;;;;;19.62;12.37;;;;;;;0.40;72.56;98145.39;1815143;78;21165;-39
2022/12/12 13:50:03;;;;;;;15.70;11.25;;;;;;;0.34;73.04;98154.13;1821601;78;20929;-39
2022/12/12 13:52:41;;;;;;;16.80;10.30;;;;;;;0.32;72.78;98147.56;1821660;78;20921;-38
2022/12/12 13:55:17;;;;;;;17.37;10.55;;;;;;;0.25;72.66;98148.05;1821764;78;21487;-39
2022/12/12 13:58:08;;;;;;;15.03;10.08;;;;;;;0.24;72.31;98156.39;1821592;78;20956;-39
2022/12/12 14:00:38;;;;;;;15.85;10.20;;;;;;;0.22;72.24;98162.58;1821752;78;21214;-38
2022/12/12 14:03:22;;;;;;;14.50;10.40;;;;;;;0.17;72.68;98159.55;1821292;78;20968;-38
2022/12/12 14:05:52;;;;;;;16.07;10.05;;;;;;;0.18;72.09;98156.33;1821004;78;21011;-39
2022/12/12 14:08:26;;;;;;;15.45;10.40;;;;;;;0.17;72.31;98156.87;1821718;78;21425;-38
2022/12/12 14:10:57;;;;;;;16.10;10.93;;;;;;;0.22;72.15;98152.70;1820894;78;20929;-39
2022/12/12 14:13:37;;;;;;;17.27;11.45;;;;;;;0.24;71.83;98152.39;1821520;78;21124;-38
2022/12/12 14:16:21;;;;;;;15.85;10.53;;;;;;;0.23;71.77;98150.28;1821826;78;21040;-38
2022/12/12 14:18:59;;;;;;;14.63;10.18;;;;;;;0.23;71.89;98154.27;1821504;78;21055;-38
2022/12/12 14:21:47;;;;;;;18.98;11.93;;;;;;;0.25;72.13;98168.59;1821497;78;20972;-39
2022/12/12 14:24:37;;;;;;;16.42;10.82;;;;;;;0.31;72.36;98164.66;1821354;78;21075;-39
2022/12/12 14:27:07;;;;;;;21.12;13.30;;;;;;;0.34;72.58;98159.45;1815692;78;21308;-39
2022/12/12 14:29:42;;;;;;;;;;;;;;;0.35;72.66;98159.69;1823947;78;21004;-38
2022/12/12 14:32:21;;;;;;;164.62;97.72;;;;;;;0.37;72.47;98158.05;1820748;78;20658;-39
2022/12/12 19:09:14;;;;;;;22.80;16.80;;;;;;;0.31;78.97;98345.91;1850529;76;22710;-39
2022/12/12 19:11:42;;;;;;;23.92;17.90;;;;;;;0.40;78.11;98351.46;1823532;78;20958;-39
2022/12/12 19:14:11;;;;;;;27.75;19.05;;;;;;;0.39;77.70;98349.89;1827533;78;21216;-39
2022/12/12 19:16:38;;;;;;;23.95;17.98;;;;;;;0.39;77.23;98356.55;1826234;78;21532;-39
2022/12/12 19:19:07;;;;;;;24.40;17.87;;;;;;;0.41;76.84;98350.38;1826567;78;20968;-39
2022/12/12 19:21:35;;;;;;;25.27;17.77;;;;;;;0.44;76.52;98360.94;1826406;78;21179;-38
2022/12/12 19:24:02;;;;;;;26.07;17.50;;;;;;;0.42;75.95;98358.61;1826546;78;20977;-39
2022/12/12 19:26:29;;;;;;;24.72;17.30;;;;;;;0.42;75.78;98364.48;1826494;78;21779;-38
2022/12/12 19:29:02;;;;;;;23.83;16.95;;;;;;;0.42;75.64;98363.94;1826199;78;20943;-39
2022/12/12 19:31:32;;;;;;;25.62;18.52;;;;;;;0.38;75.71;98368.89;1826534;78;20905;-39
2022/12/12 19:33:58;;;;;;;25.55;16.85;;;;;;;0.35;75.79;98366.84;1826712;78;20973;-39
2022/12/12 19:36:25;;;;;;;25.43;18.50;;;;;;;0.34;75.62;98361.27;1826559;78;21063;-39
2022/12/12 19:38:52;;;;;;;33.50;23.10;;;;;;;0.30;75.88;98365.13;1826375;78;21129;-39
2022/12/12 19:41:20;;;;;;;32.58;20.05;;;;;;;0.31;75.89;98365.36;1826460;78;21028;-39
2022/12/12 19:43:49;;;;;;;44.67;27.10;;;;;;;0.31;75.81;98364.58;1826328;78;20994;-38
2022/12/12 19:46:19;;;;;;;;;;;;;;;0.29;75.56;98375.55;1829182;78;21529;-38
2022/12/12 19:48:46;;;;;;;34.75;21.95;;;;;;;0.27;75.59;98377.76;1826494;78;20153;-39
2022/12/12 19:51:15;;;;;;;31.15;19.90;;;;;;;0.18;75.82;98378.32;1826274;78;23099;-38
2022/12/12 19:53:50;;;;;;;31.60;20.92;;;;;;;0.19;75.92;98377.77;1826374;78;21047;-38
2022/12/12 19:56:20;;;;;;;39.00;22.65;;;;;;;0.17;75.98;98389.28;1826103;78;20988;-38
2022/12/12 19:58:48;;;;;;;36.35;23.12;;;;;;;0.14;76.08;98388.05;1826314;78;21017;-38
2022/12/12 20:01:21;;;;;;;33.80;22.05;;;;;;;0.15;76.25;98390.92;1826337;78;21424;-38
2022/12/12 20:04:01;;;;;;;36.85;21.23;;;;;;;0.17;76.24;98385.29;1826416;78;21752;-39
2022/12/12 20:06:28;;;;;;;30.17;19.98;;;;;;;0.18;76.21;98381.53;1826204;78;21011;-39
2022/12/12 20:08:58;;;;;;;31.10;20.52;;;;;;;0.19;76.22;98382.56;1830990;78;20924;-39
2022/12/12 20:11:25;;;;;;;30.12;19.95;;;;;;;0.24;75.93;98378.95;1832823;78;20995;-38
2022/12/12 20:13:54;;;;;;;29.85;19.20;;;;;;;0.24;75.90;98377.04;1832485;78;21034;-38
2022/12/12 20:16:23;;;;;;;36.50;24.72;;;;;;;0.26;75.72;98374.85;1832770;77;21127;-39
2022/12/12 20:18:51;;;;;;;41.33;28.15;;;;;;;0.25;75.75;98384.48;1832269;78;21510;-39
2022/12/12 20:21:20;;;;;;;43.63;27.35;;;;;;;0.27;75.85;98383.63;1832223;78;20960;-38
2022/12/12 20:23:46;;;;;;;32.48;22.25;;;;;;;0.31;75.85;98390.69;1831851;77;21655;-39
2022/12/12 20:26:17;;;;;;;45.43;29.92;;;;;;;0.33;75.70;98396.50;1831734;78;21079;-38
2022/12/12 20:28:45;;;;;;;40.12;25.55;;;;;;;0.36;75.64;98397.19;1831746;78;21237;-39
2022/12/12 20:31:18;;;;;;;35.92;24.57;;;;;;;0.38;75.53;98399.00;1832038;78;20981;-39
2022/12/12 20:33:45;;;;;;;36.48;23.35;;;;;;;0.41;75.41;98401.57;1831742;78;21501;-39
2022/12/12 20:36:19;;;;;;;33.23;22.55;;;;;;;0.40;75.37;98400.00;1831929;77;21494;-38
2022/12/12 20:38:46;;;;;;;40.90;26.90;;;;;;;0.41;75.17;98398.36;1831861;78;20978;-38
2022/12/12 20:41:18;;;;;;;35.08;23.95;;;;;;;0.38;75.06;98399.00;1831857;78;21168;-38
2022/12/12 20:43:46;;;;;;;30.77;21.02;;;;;;;0.37;74.97;98403.30;1831675;78;20985;-39
2022/12/12 20:46:18;;;;;;;28.35;19.67;;;;;;;0.31;75.11;98408.56;1831953;78;20928;-38
2022/12/12 20:48:46;;;;;;;29.18;20.17;;;;;;;0.24;75.11;98406.94;1831859;78;21521;-39
2022/12/12 20:51:16;;;;;;;31.40;20.80;;;;;;;0.18;75.37;98408.97;1831925;77;20932;-38
2022/12/12 20:53:45;;;;;;;30.82;21.27;;;;;;;0.14;75.28;98406.70;1832025;78;21281;-38
2022/12/12 20:56:16;;;;;;;29.10;20.17;;;;;;;0.12;75.29;98409.43;1832187;78;20952;-39
2022/12/12 20:58:43;;;;;;;28.73;20.60;;;;;;;0.09;75.36;98421.52;1831762;77;20944;-38
2022/12/12 21:01:14;;;;;;;29.70;20.52;;;;;;;0.06;75.48;98420.00;1831837;78;20956;-38
2022/12/12 21:03:42;;;;;;;30.05;20.40;;;;;;;0.04;75.61;98424.33;1831500;77;21024;-38
2022/12/12 21:06:17;;;;;;;29.75;20.52;;;;;;;0.03;75.60;98422.76;1825583;78;21195;-38
2022/12/12 21:08:47;;;;;;;33.40;22.73;;;;;;;0.04;75.59;98423.00;1826769;78;20960;-39
2022/12/12 21:11:24;;;;;;;28.45;19.17;;;;;;;0.04;75.73;98423.55;1831781;77;21004;-39
2022/12/12 21:13:51;;;;;;;27.40;20.17;;;;;;;0.07;75.69;98429.57;1831569;78;21497;-39
2022/12/12 21:16:23;;;;;;;29.70;20.68;;;;;;;0.07;75.64;98430.91;1832000;78;20980;-39
2022/12/12 21:18:53;;;;;;;29.40;20.35;;;;;;;0.09;75.61;98436.72;1831653;78;23409;-39
2022/12/12 21:21:23;;;;;;;30.30;20.40;;;;;;;0.05;75.70;98433.87;1831746;78;20928;-39
2022/12/12 21:23:52;;;;;;;29.87;20.88;;;;;;;0.06;75.72;98432.78;1831959;78;20963;-39
2022/12/12 21:26:21;;;;;;;32.13;21.42;;;;;;;0.03;75.74;98425.42;1831756;77;21509;-38
2022/12/12 21:28:48;;;;;;;29.37;21.00;;;;;;;0.06;75.85;98426.12;1832010;78;20985;-38
2022/12/12 21:31:19;;;;;;;29.67;21.10;;;;;;;0.12;75.85;98428.87;1831688;78;21096;-38
2022/12/12 21:33:46;;;;;;;30.68;21.87;;;;;;;0.16;75.84;98432.47;1831610;78;21482;-38
2022/12/12 21:36:15;;;;;;;32.45;23.15;;;;;;;0.20;75.71;98437.41;1831790;78;20944;-38
2022/12/12 21:38:42;;;;;;;30.08;22.42;;;;;;;0.23;75.46;98438.13;1831903;78;20956;-39
2022/12/12 21:41:15;;;;;;;33.58;21.70;;;;;;;0.21;75.43;98442.98;1831689;78;21067;-38
2022/12/12 21:43:41;;;;;;;32.15;21.80;;;;;;;0.21;75.39;98445.64;1831305;77;22036;-38
2022/12/12 21:46:13;;;;;;;30.48;20.45;;;;;;;0.21;75.43;98450.97;1815678;78;21027;-38
2022/12/12 21:48:40;;;;;;;44.27;30.17;;;;;;;0.23;75.46;98450.12;1831343;77;20909;-38
2022/12/12 21:51:13;;;;;;;51.30;33.60;;;;;;;0.25;75.40;98450.58;1832057;77;20956;-38
2022/12/12 21:53:40;;;;;;;51.83;33.60;;;;;;;0.28;75.15;98454.52;1831812;77;20989;-39
2022/12/12 21:56:11;;;;;;;49.13;33.13;;;;;;;0.27;75.11;98459.60;1831750;77;21211;-39
2022/12/12 21:58:41;;;;;;;50.67;32.93;;;;;;;0.32;75.07;98465.57;1831694;77;20905;-39
2022/12/12 22:01:11;;;;;;;46.15;29.50;;;;;;;0.35;74.90;98462.27;1832001;78;20882;-39
2022/12/12 22:03:38;;;;;;;49.48;27.87;;;;;;;0.36;74.55;98470.50;1831048;77;21521;-38
2022/12/12 22:06:21;;;;;;;43.00;27.02;;;;;;;0.31;74.49;98470.66;1831855;78;21012;-39
2022/12/12 22:08:47;;;;;;;38.83;25.08;;;;;;;0.33;74.59;98463.14;1831641;78;21079;-39
2022/12/12 22:11:16;;;;;;;33.40;22.55;;;;;;;0.34;74.50;98474.56;1831700;78;21220;-38
2022/12/12 22:13:43;;;;;;;35.33;21.80;;;;;;;0.35;74.30;98467.59;1831762;78;20944;-39
2022/12/12 22:16:14;;;;;;;37.90;22.77;;;;;;;0.31;74.44;98468.53;1831593;78;21361;-38
2022/12/12 22:18:40;;;;;;;35.30;22.50;;;;;;;0.26;74.52;98472.69;1831597;78;21558;-38
2022/12/12 22:21:10;;;;;;;52.58;31.97;;;;;;;0.24;74.68;98476.98;1831730;78;21201;-38
2022/12/12 22:23:38;;;;;;;40.37;25.50;;;;;;;0.17;75.05;98466.58;1832130;78;21011;-39
2022/12/12 22:26:24;;;;;;;34.33;22.67;;;;;;;0.17;75.05;98466.58;1831965;78;21438;-39
2022/12/12 22:28:53;;;;;;;35.23;22.17;;;;;;;0.21;74.84;98478.96;1831744;78;20991;-39
2022/12/12 22:31:21;;;;;;;29.73;19.07;;;;;;;0.19;74.84;98482.50;1832372;78;21478;-39
2022/12/12 22:33:48;;;;;;;36.88;24.02;;;;;;;0.14;74.97;98480.53;1832026;78;21449;-38
2022/12/12 22:36:15;;;;;;;38.88;24.90;;;;;;;0.14;75.13;98478.66;1831647;78;20952;-38
2022/12/12 22:38:41;;;;;;;32.38;22.48;;;;;;;0.11;75.28;98483.26;1831718;78;20944;-38
2022/12/12 22:41:09;;;;;;;35.05;23.60;;;;;;;0.12;75.44;98497.38;1831771;77;20877;-39
2022/12/12 22:43:36;;;;;;;33.42;22.90;;;;;;;0.12;75.63;98495.50;1831709;77;20985;-38
2022/12/12 22:46:05;;;;;;;36.28;23.35;;;;;;;0.15;75.68;98497.52;1831637;78;23118;-38
2022/12/12 22:48:32;;;;;;;32.65;22.50;;;;;;;0.18;75.69;98502.25;1831835;78;20913;-38
2022/12/12 22:50:59;;;;;;;38.08;22.93;;;;;;;0.22;75.67;98490.41;1831886;78;21018;-39
2022/12/12 22:53:26;;;;;;;35.20;22.25;;;;;;;0.23;75.67;98478.66;1815528;78;21505;-38
2022/12/12 22:55:53;;;;;;;38.25;23.20;;;;;;;0.30;75.45;98490.41;1831726;78;20889;-39
2022/12/12 22:58:20;;;;;;;37.38;22.87;;;;;;;0.33;75.26;98489.80;1832017;78;21536;-39
2022/12/12 23:00:46;;;;;;;46.40;26.68;;;;;;;0.31;75.16;98497.86;1831488;78;20952;-38
2022/12/12 23:03:13;;;;;;;41.55;25.30;;;;;;;0.31;75.34;98493.31;1831807;78;21517;-39
2022/12/12 23:05:41;;;;;;;30.68;21.02;;;;;;;0.31;75.42;98487.98;1831670;77;20988;-38
2022/12/12 23:08:10;;;;;;;50.33;28.62;;;;;;;0.34;75.57;98490.02;1831571;77;21016;-39
2022/12/12 23:10:36;;;;;;;62.45;35.20;;;;;;;0.41;75.53;98477.02;1825606;78;21234;-38
2022/12/12 23:13:03;;;;;;;45.92;28.35;;;;;;;0.48;75.48;98477.09;1825526;78;20877;-39
2022/12/12 23:15:30;;;;;;;47.48;26.75;;;;;;;0.51;75.19;98480.45;1825697;78;20960;-39
2022/12/12 23:17:57;;;;;;;62.25;34.90;;;;;;;0.51;75.19;98481.24;1825523;78;20988;-39
2022/12/12 23:20:23;;;;;;;39.38;24.50;;;;;;;0.53;75.06;98484.94;1825654;78;21004;-38
2022/12/12 23:22:50;;;;;;;41.18;26.55;;;;;;;0.50;75.11;98484.22;1825611;78;21247;-38
2022/12/12 23:25:16;;;;;;;37.35;24.20;;;;;;;0.49;75.08;98482.64;1825388;78;20933;-38
2022/12/12 23:27:43;;;;;;;48.38;28.52;;;;;;;0.48;75.18;98479.22;1825492;78;21036;-38
2022/12/12 23:30:11;;;;;;;42.88;25.02;;;;;;;0.50;75.10;98481.55;1825435;78;21606;-38
2022/12/12 23:32:38;;;;;;;36.85;23.40;;;;;;;0.49;74.90;98480.76;1825513;78;21517;-39
2022/12/12 23:35:06;;;;;;;38.10;23.07;;;;;;;0.44;74.98;98483.04;1825622;78;21132;-39
2022/12/12 23:37:33;;;;;;;28.52;20.08;;;;;;;0.44;75.09;98484.37;1825364;78;21531;-38